< < Back
Terminal Aerodrome Forecast


Current Version              Previous Versions:   1  2  3  4  5  6  7  8  9  

Terminal Aerodrome Forecast

837
FTUS42 KCHS 160200 AAA
TAFSAV
TAF AMD
KSAV 160252Z 1603/1624 00000KT P6SM SCT015 SCT040 BKN100
      TEMPO 1605/1609 5SM BR SCT005 BKN015
     FM160900 VRB02KT 4SM BR SCT004 BKN010
      TEMPO 1610/1613 2SM BR BKN004
     FM161400 32005KT P6SM SCT015 BKN040
     FM161700 VRB06KT P6SM VCTS SCT025CB BKN040
      TEMPO 1618/1622 4SM TSRA BR SCT015 BKN025CB=

Latest METAR

878
SAUS80 KWBC 160300 RRA
MTRSAV
METAR KSAV 160253Z 00000KT 10SM FEW008 BKN160 OVC220 24/23 A3013 RMK AO2
SLP203 T02440228 50005 $


USA.gov is the U.S. government's official web portal to all federal, state and local government web resources and services.